Time;durP1;ratioP1;P1;durP2;ratioP2;P2;SDS_P1;SDS_P2;PMS_P1;PMS_P2;Temp;Humidity;BMP_temperature;BMP_pressure;BME280_temperature;BME280_humidity;BME280_pressure;Samples;Min_cycle;Max_cycle;Signal;HPM_P1;HPM_P2
2021/09/23 00:02:13;;;;;;;10.52;6.45;;;;;;;12.27;73.53;100338.06;5050175;28;20033;-68
2021/09/23 00:04:39;;;;;;;11.45;7.72;;;;;;;12.17;73.43;100335.84;5050450;28;20072;-69
2021/09/23 00:07:05;;;;;;;10.13;7.32;;;;;;;12.12;74.23;100327.28;5050107;28;20496;-69
2021/09/23 00:09:30;;;;;;;10.68;7.28;;;;;;;12.07;73.86;100324.00;5050609;28;20067;-68
2021/09/23 00:11:55;;;;;;;11.98;8.25;;;;;;;12.03;74.29;100333.88;5049706;28;20037;-70
2021/09/23 00:14:21;;;;;;;9.27;7.22;;;;;;;11.96;74.09;100323.63;5048870;28;20445;-68
2021/09/23 00:16:46;;;;;;;10.52;8.05;;;;;;;11.90;74.72;100322.13;5049761;28;20040;-69
2021/09/23 00:19:12;;;;;;;11.07;7.95;;;;;;;11.85;74.51;100312.69;5050500;28;20035;-71
2021/09/23 00:21:37;;;;;;;14.88;8.38;;;;;;;11.81;74.76;100318.13;5048932;28;20107;-69
2021/09/23 00:24:03;;;;;;;9.68;6.70;;;;;;;11.78;74.75;100312.94;5049506;28;20071;-68
2021/09/23 00:26:28;;;;;;;11.93;7.68;;;;;;;11.80;74.95;100320.81;5048293;28;20265;-69
2021/09/23 00:28:54;;;;;;;9.32;7.07;;;;;;;11.81;74.93;100312.84;5049567;28;20033;-70
2021/09/23 00:31:20;;;;;;;10.82;7.35;;;;;;;11.83;74.40;100305.66;5048636;28;20057;-70
2021/09/23 00:33:45;;;;;;;9.07;7.07;;;;;;;11.80;74.84;100304.97;5047595;28;20040;-69
2021/09/23 00:36:10;;;;;;;11.85;8.32;;;;;;;11.78;74.53;100298.88;5050380;28;20033;-68
2021/09/23 00:38:36;;;;;;;10.65;7.70;;;;;;;11.70;74.01;100295.75;5047573;28;20029;-69
2021/09/23 00:41:01;;;;;;;8.93;7.15;;;;;;;11.67;74.52;100298.53;5049122;28;20527;-69
2021/09/23 00:43:27;;;;;;;12.27;7.47;;;;;;;11.68;74.54;100281.75;5048033;28;20041;-69
2021/09/23 00:45:52;;;;;;;11.00;8.07;;;;;;;11.64;74.39;100275.78;5048245;28;20033;-69
2021/09/23 00:48:17;;;;;;;12.25;8.30;;;;;;;11.59;74.23;100275.97;5049749;28;20045;-70
2021/09/23 00:50:44;;;;;;;10.98;7.50;;;;;;;11.54;74.86;100274.44;5049389;28;20037;-68
2021/09/23 00:53:10;;;;;;;8.73;6.90;;;;;;;11.48;74.94;100269.47;5048831;28;20029;-69
2021/09/23 00:55:35;;;;;;;10.20;7.28;;;;;;;11.42;75.15;100261.81;5048904;28;20082;-70
2021/09/23 00:58:00;;;;;;;12.52;8.40;;;;;;;11.32;75.94;100251.69;5047984;28;20406;-69
2021/09/23 01:00:26;;;;;;;11.75;7.35;;;;;;;11.34;75.46;100243.69;5025600;28;20061;-70
2021/09/23 01:02:52;;;;;;;10.02;6.53;;;;;;;11.39;75.34;100252.25;5047594;28;20060;-70
2021/09/23 01:05:17;;;;;;;8.20;7.00;;;;;;;11.41;75.63;100260.09;5049790;28;20128;-70
2021/09/23 01:07:47;;;;;;;13.77;7.63;;;;;;;11.46;75.17;100253.69;5048018;28;20039;-69
2021/09/23 01:10:15;;;;;;;8.43;6.65;;;;;;;11.46;75.27;100255.47;5030916;28;20092;-69
2021/09/23 01:12:41;;;;;;;9.38;7.28;;;;;;;11.44;74.81;100254.69;5047629;28;20036;-69
2021/09/23 01:15:08;;;;;;;13.50;7.72;;;;;;;11.40;75.08;100251.34;5047831;28;20467;-69
2021/09/23 01:17:34;;;;;;;7.80;6.47;;;;;;;11.45;75.43;100261.69;5047889;28;20109;-69
2021/09/23 01:20:00;;;;;;;9.55;5.90;;;;;;;11.50;75.13;100273.75;5046165;28;20056;-69
2021/09/23 01:22:25;;;;;;;8.23;6.00;;;;;;;11.58;75.12;100273.41;5047374;28;20072;-69
2021/09/23 01:24:51;;;;;;;11.90;8.25;;;;;;;11.61;74.27;100279.38;5056202;28;20060;-70
2021/09/23 01:27:17;;;;;;;12.43;8.23;;;;;;;11.64;74.09;100283.69;5068125;28;20381;-69
2021/09/23 01:29:42;;;;;;;9.60;7.15;;;;;;;11.61;74.59;100279.38;5068015;28;20082;-70
2021/09/23 01:32:09;;;;;;;13.07;9.70;;;;;;;11.65;74.05;100274.84;5067022;28;20177;-70
2021/09/23 01:34:36;;;;;;;9.77;7.43;;;;;;;11.58;74.73;100268.97;5056786;28;20493;-70
2021/09/23 01:37:01;;;;;;;11.13;7.82;;;;;;;11.58;74.81;100268.13;5047849;28;20040;-70
2021/09/23 01:39:28;;;;;;;13.45;9.02;;;;;;;11.52;74.79;100249.94;5046991;28;20029;-70
2021/09/23 01:41:55;;;;;;;11.68;7.78;;;;;;;11.37;74.65;100244.41;5046973;28;20100;-69
2021/09/23 01:44:20;;;;;;;14.18;7.82;;;;;;;11.25;75.25;100237.03;5047771;28;20037;-69
2021/09/23 01:46:46;;;;;;;10.68;8.13;;;;;;;11.16;75.79;100238.28;5047319;28;20032;-70
2021/09/23 01:49:11;;;;;;;13.70;7.68;;;;;;;11.16;75.73;100242.72;5047432;28;20056;-70
2021/09/23 01:51:37;;;;;;;11.52;8.40;;;;;;;11.13;76.08;100238.44;5046865;28;20048;-69
2021/09/23 01:54:03;;;;;;;13.40;7.15;;;;;;;11.13;75.86;100240.22;5047344;28;20116;-70
2021/09/23 01:56:28;;;;;;;8.68;7.03;;;;;;;11.17;75.49;100233.88;5045232;28;20041;-70
2021/09/23 01:58:54;;;;;;;11.60;9.70;;;;;;;11.12;75.30;100223.53;5047324;28;20485;-69
2021/09/23 02:01:21;;;;;;;9.35;6.85;;;;;;;11.01;75.92;100217.88;5047116;28;20037;-69
2021/09/23 02:03:46;;;;;;;9.48;7.38;;;;;;;10.96;75.73;100231.25;5046932;28;20484;-70
2021/09/23 02:06:11;;;;;;;10.32;7.93;;;;;;;10.89;76.21;100221.91;5046314;28;20068;-69
2021/09/23 02:08:37;;;;;;;13.10;7.78;;;;;;;10.84;76.22;100212.47;5046553;28;20493;-70
2021/09/23 02:11:03;;;;;;;12.18;8.98;;;;;;;10.80;76.53;100210.88;5045160;28;20064;-70
2021/09/23 02:13:28;;;;;;;9.48;7.13;;;;;;;10.75;76.75;100208.44;5046748;28;20041;-70
2021/09/23 02:15:54;;;;;;;11.45;6.90;;;;;;;10.80;76.60;100217.00;5046685;28;20503;-69
2021/09/23 02:18:19;;;;;;;10.85;8.15;;;;;;;10.81;76.50;100202.91;5047022;28;20580;-69
2021/09/23 02:20:44;;;;;;;9.77;6.85;;;;;;;10.84;76.45;100204.56;5047915;28;20048;-69
2021/09/23 02:23:10;;;;;;;11.68;7.38;;;;;;;10.88;76.07;100198.25;5046935;28;20056;-69
2021/09/23 02:25:36;;;;;;;11.68;7.00;;;;;;;10.86;75.75;100185.13;5045812;28;20600;-70
2021/09/23 02:28:01;;;;;;;9.27;6.55;;;;;;;10.80;76.46;100179.25;5046437;28;20029;-70
2021/09/23 02:30:28;;;;;;;10.05;6.75;;;;;;;10.75;75.96;100176.81;5028569;28;20533;-69
2021/09/23 02:32:54;;;;;;;8.32;6.30;;;;;;;10.70;76.10;100171.72;5046051;28;20128;-70
2021/09/23 02:35:19;;;;;;;8.60;6.13;;;;;;;10.61;76.75;100164.22;5046880;28;20119;-71
2021/09/23 02:37:44;;;;;;;9.48;6.90;;;;;;;10.54;76.17;100162.78;5046421;28;20039;-71
2021/09/23 02:40:11;;;;;;;7.70;5.47;;;;;;;10.61;76.41;100168.63;5046563;28;20025;-69
2021/09/23 02:42:37;;;;;;;7.60;5.63;;;;;;;10.66;76.40;100169.31;5044873;28;20041;-69
2021/09/23 02:45:03;;;;;;;9.88;5.47;;;;;;;10.72;76.08;100175.16;5046901;28;20045;-70
2021/09/23 02:47:29;;;;;;;7.20;5.10;;;;;;;10.76;75.80;100173.25;5046700;28;20079;-70
2021/09/23 02:49:54;;;;;;;7.13;5.03;;;;;;;10.75;76.51;100171.53;5046423;28;20112;-70
2021/09/23 02:52:20;;;;;;;9.85;5.85;;;;;;;10.81;75.84;100181.81;5046464;28;20087;-70
2021/09/23 02:54:45;;;;;;;6.85;5.05;;;;;;;10.84;75.06;100170.28;5046677;28;20037;-72
2021/09/23 02:57:10;;;;;;;6.70;5.22;;;;;;;10.89;74.74;100179.69;5048645;28;20029;-70
2021/09/23 02:59:37;;;;;;;7.85;6.22;;;;;;;10.87;74.85;100184.16;5050888;28;20052;-70
2021/09/23 03:02:03;;;;;;;10.82;5.72;;;;;;;10.85;75.33;100190.44;5050526;28;20029;-70
2021/09/23 03:04:28;;;;;;;7.75;5.45;;;;;;;10.86;75.38;100185.13;5051056;28;20037;-70
2021/09/23 03:06:53;;;;;;;13.27;5.70;;;;;;;10.95;75.18;100192.63;5048252;28;20435;-70
2021/09/23 03:09:19;;;;;;;8.07;4.90;;;;;;;11.02;74.90;100192.34;5050984;28;20106;-70
2021/09/23 03:11:44;;;;;;;8.63;5.43;;;;;;;11.01;74.79;100193.28;5049542;28;20037;-70
2021/09/23 03:14:10;;;;;;;8.80;6.00;;;;;;;10.95;74.76;100176.81;5050244;28;20033;-70
2021/09/23 03:16:35;;;;;;;6.57;5.22;;;;;;;11.00;74.48;100175.72;5050511;28;20451;-70
2021/09/23 03:19:01;;;;;;;8.52;5.57;;;;;;;11.00;74.45;100166.03;5050543;28;20112;-70
2021/09/23 03:21:26;;;;;;;6.15;4.75;;;;;;;10.98;74.82;100172.28;5052634;28;20102;-70
2021/09/23 03:23:52;;;;;;;7.55;4.75;;;;;;;10.94;75.03;100177.72;5050288;28;20037;-69
2021/09/23 03:26:17;;;;;;;7.88;5.90;;;;;;;10.93;75.29;100185.72;5049554;28;20219;-68
2021/09/23 03:28:42;;;;;;;7.00;5.60;;;;;;;10.99;75.22;100182.78;5050002;28;20052;-69
2021/09/23 03:31:08;;;;;;;6.85;5.10;;;;;;;11.04;75.06;100179.94;5048458;28;20056;-69
2021/09/23 03:33:33;;;;;;;9.10;5.85;;;;;;;11.05;75.00;100171.97;5048920;28;20057;-69
2021/09/23 03:35:59;;;;;;;17.15;5.05;;;;;;;11.09;74.74;100162.97;5049866;28;20083;-69
2021/09/23 03:38:24;;;;;;;9.80;6.45;;;;;;;11.19;74.64;100163.41;5049776;28;20493;-69
2021/09/23 03:40:50;;;;;;;9.40;6.93;;;;;;;11.21;74.55;100163.34;5050384;28;20032;-69
2021/09/23 03:43:16;;;;;;;8.57;6.68;;;;;;;11.20;74.76;100167.78;5048017;28;20032;-70
2021/09/23 03:45:42;;;;;;;9.27;6.93;;;;;;;11.25;74.91;100164.91;5050033;28;20175;-70
2021/09/23 03:48:08;;;;;;;8.23;6.00;;;;;;;11.25;74.99;100154.34;5049472;28;20040;-68
2021/09/23 03:50:33;;;;;;;9.25;6.60;;;;;;;11.22;75.08;100144.78;5049890;28;20037;-70
2021/09/23 03:52:59;;;;;;;10.98;7.97;;;;;;;11.26;75.77;100140.25;5048855;28;20052;-70
2021/09/23 03:55:25;;;;;;;10.23;7.47;;;;;;;11.28;75.71;100141.88;5049366;28;20753;-70
2021/09/23 03:57:50;;;;;;;9.98;6.85;;;;;;;11.29;75.44;100142.72;5050203;28;20033;-70
2021/09/23 04:00:20;;;;;;;9.15;7.15;;;;;;;11.38;74.83;100139.66;5050148;28;20048;-69
2021/09/23 04:02:46;;;;;;;11.25;6.90;;;;;;;11.45;74.57;100127.91;5048638;28;20095;-69
2021/09/23 04:05:11;;;;;;;10.55;7.25;;;;;;;11.47;74.16;100123.41;5048450;28;20028;-69
2021/09/23 04:07:36;;;;;;;8.10;5.88;;;;;;;11.53;74.40;100130.16;5047709;28;20737;-70
2021/09/23 04:10:02;;;;;;;7.47;5.88;;;;;;;11.55;74.57;100128.31;5048541;28;20548;-69
2021/09/23 04:12:28;;;;;;;11.00;6.53;;;;;;;11.58;74.33;100126.38;5047905;28;20040;-70
2021/09/23 04:14:53;;;;;;;7.38;5.32;;;;;;;11.61;74.37;100114.81;5047450;28;20032;-70
2021/09/23 04:17:19;;;;;;;7.15;4.72;;;;;;;11.61;74.17;100114.81;5048886;28;20584;-70
2021/09/23 04:19:45;;;;;;;7.10;5.53;;;;;;;11.63;74.01;100110.31;5048467;28;20033;-70
2021/09/23 04:22:11;;;;;;;7.22;5.28;;;;;;;11.68;73.83;100115.38;5048023;28;20033;-70
2021/09/23 04:24:36;;;;;;;9.23;5.70;;;;;;;11.67;73.65;100124.22;5049918;28;20044;-70
2021/09/23 04:27:02;;;;;;;8.50;6.15;;;;;;;11.67;73.53;100130.38;5049767;28;20484;-69
2021/09/23 04:29:27;;;;;;;7.55;5.85;;;;;;;11.68;73.32;100118.00;5050373;28;20037;-70
2021/09/23 04:31:53;;;;;;;9.02;6.20;;;;;;;11.68;73.54;100115.38;5054907;28;20029;-70
2021/09/23 04:34:18;;;;;;;8.68;5.82;;;;;;;11.63;73.84;100112.09;5051068;28;20043;-70
2021/09/23 04:36:43;;;;;;;7.93;5.95;;;;;;;11.62;73.31;100121.81;5053286;28;20036;-70
2021/09/23 04:39:09;;;;;;;7.75;5.35;;;;;;;11.62;73.77;100129.72;5052623;28;20104;-70
2021/09/23 04:41:34;;;;;;;9.35;5.97;;;;;;;11.65;73.75;100129.56;5050190;28;20036;-70
2021/09/23 04:44:00;;;;;;;8.15;6.88;;;;;;;11.68;73.28;100125.94;5053155;28;20044;-69
2021/09/23 04:46:25;;;;;;;11.27;6.07;;;;;;;11.67;73.03;100127.72;5051922;28;20679;-70
2021/09/23 04:48:52;;;;;;;10.20;5.88;;;;;;;11.70;73.00;100132.84;5052971;28;20032;-69
2021/09/23 04:51:22;;;;;;;7.32;5.15;;;;;;;11.72;72.49;100128.34;5052215;28;20033;-69
2021/09/23 04:53:48;;;;;;;7.82;6.38;;;;;;;11.71;72.69;100131.91;5049219;28;20036;-69
2021/09/23 04:56:13;;;;;;;11.15;5.65;;;;;;;11.64;72.68;100119.97;5051291;28;20051;-70
2021/09/23 04:58:39;;;;;;;8.95;6.15;;;;;;;11.61;73.12;100128.84;5048324;28;20044;-71
2021/09/23 05:01:04;;;;;;;13.02;5.93;;;;;;;11.65;73.24;100119.00;5046484;28;20178;-70
2021/09/23 05:03:30;;;;;;;6.03;4.82;;;;;;;11.72;73.07;100127.50;5049010;28;20064;-70
2021/09/23 05:05:55;;;;;;;11.20;5.28;;;;;;;11.72;73.35;100119.59;5049949;28;20443;-70
2021/09/23 05:08:23;;;;;;;5.90;4.32;;;;;;;11.66;73.38;100112.78;5047141;28;20187;-69
2021/09/23 05:10:48;;;;;;;7.65;5.30;;;;;;;11.64;72.65;100119.06;5047962;28;20079;-70
2021/09/23 05:13:13;;;;;;;7.35;5.15;;;;;;;11.65;73.60;100126.94;5049987;28;20489;-69
2021/09/23 05:15:39;;;;;;;6.95;4.97;;;;;;;11.68;73.25;100120.66;5048422;28;20045;-70
2021/09/23 05:18:05;;;;;;;20.52;6.50;;;;;;;11.69;73.28;100128.50;5048108;28;20040;-70
2021/09/23 05:20:31;;;;;;;10.20;6.00;;;;;;;11.67;72.96;100124.22;5046134;28;20051;-70
2021/09/23 05:22:56;;;;;;;7.38;5.20;;;;;;;11.63;73.80;100133.22;5046778;28;20037;-70
2021/09/23 05:25:22;;;;;;;8.45;5.32;;;;;;;11.67;73.66;100133.00;5051120;28;20048;-70
2021/09/23 05:27:48;;;;;;;11.32;5.30;;;;;;;11.74;73.33;100136.19;5047901;28;20029;-70
2021/09/23 05:30:14;;;;;;;8.85;6.10;;;;;;;11.73;73.23;100145.06;5047165;28;20033;-71
2021/09/23 05:32:41;;;;;;;7.93;5.30;;;;;;;11.71;72.94;100149.53;5044989;28;20056;-71
2021/09/23 05:35:08;;;;;;;7.15;5.22;;;;;;;11.75;73.20;100159.03;5045277;28;20040;-68
2021/09/23 05:37:33;;;;;;;7.95;5.07;;;;;;;11.78;73.23;100162.38;5045503;28;20529;-70
2021/09/23 05:39:59;;;;;;;9.68;5.28;;;;;;;11.76;73.07;100161.63;5046206;28;20041;-70
2021/09/23 05:42:24;;;;;;;8.20;4.78;;;;;;;11.78;72.92;100165.03;5045083;28;20063;-70
2021/09/23 05:44:49;;;;;;;11.40;5.20;;;;;;;11.77;73.00;100171.25;5047063;28;20033;-70
2021/09/23 05:47:15;;;;;;;9.40;5.63;;;;;;;11.79;72.83;100184.41;5046913;28;20033;-70
2021/09/23 05:49:41;;;;;;;7.40;6.25;;;;;;;11.80;72.63;100179.03;5041201;28;20091;-70
2021/09/23 05:52:06;;;;;;;9.88;5.35;;;;;;;11.73;72.81;100160.91;5046393;28;20033;-70
2021/09/23 05:54:32;;;;;;;7.20;4.55;;;;;;;11.70;73.18;100164.53;5048189;28;20082;-69
2021/09/23 05:56:57;;;;;;;7.70;5.32;;;;;;;11.69;73.74;100160.22;5047475;28;20108;-68
2021/09/23 05:59:24;;;;;;;6.63;5.57;;;;;;;11.63;73.63;100160.47;5049228;28;20117;-69
2021/09/23 06:01:50;;;;;;;9.65;6.55;;;;;;;11.57;73.73;100159.00;5047386;28;20033;-70
2021/09/23 06:04:16;;;;;;;10.60;5.28;;;;;;;11.58;74.27;100158.06;5047919;28;20048;-70
2021/09/23 06:06:41;;;;;;;11.25;5.63;;;;;;;11.62;73.62;100148.22;5046899;28;20079;-70
2021/09/23 06:09:07;;;;;;;6.97;5.18;;;;;;;11.66;74.05;100151.56;5046667;28;20119;-70
2021/09/23 06:11:35;;;;;;;7.95;5.13;;;;;;;11.69;73.83;100143.47;5046797;28;20040;-70
2021/09/23 06:14:00;;;;;;;9.52;5.78;;;;;;;11.69;73.48;100127.63;5046283;28;20025;-70
2021/09/23 06:16:26;;;;;;;6.72;5.10;;;;;;;11.74;73.49;100129.13;5045888;28;20505;-69
2021/09/23 06:18:51;;;;;;;6.95;4.95;;;;;;;11.81;73.72;100132.31;5046871;28;20344;-70
2021/09/23 06:21:16;;;;;;;7.10;5.13;;;;;;;11.86;73.51;100132.94;5047505;28;20562;-70
2021/09/23 06:23:42;;;;;;;7.18;4.85;;;;;;;11.93;73.06;100123.81;5046907;28;20048;-70
2021/09/23 06:26:07;;;;;;;7.35;5.60;;;;;;;11.98;72.54;100110.38;5046983;28;20065;-70
2021/09/23 06:28:32;;;;;;;6.03;4.15;;;;;;;12.03;72.54;100108.38;5047104;28;20668;-70
2021/09/23 06:30:59;;;;;;;7.38;5.20;;;;;;;12.05;72.62;100098.59;5046688;28;20033;-72
2021/09/23 06:33:25;;;;;;;7.55;4.80;;;;;;;12.08;72.40;100092.28;5045132;28;20047;-72
2021/09/23 06:35:50;;;;;;;8.98;4.80;;;;;;;12.14;72.31;100082.28;5047547;28;20492;-71
2021/09/23 06:38:16;;;;;;;6.28;4.80;;;;;;;12.23;71.70;100089.75;5045326;28;20373;-72
2021/09/23 06:40:41;;;;;;;8.98;3.92;;;;;;;12.34;71.69;100090.97;5043557;28;20048;-72
2021/09/23 06:43:07;;;;;;;7.18;3.75;;;;;;;12.42;71.31;100088.78;5046776;28;20052;-72
2021/09/23 06:45:32;;;;;;;8.05;5.15;;;;;;;12.48;71.51;100085.81;5045898;28;20040;-72
2021/09/23 06:47:57;;;;;;;7.85;5.18;;;;;;;12.56;70.73;100091.56;5047156;28;20059;-72
2021/09/23 06:50:23;;;;;;;7.97;3.92;;;;;;;12.63;70.44;100087.66;5047167;28;20048;-70
2021/09/23 06:52:48;;;;;;;5.75;4.32;;;;;;;12.74;71.05;100086.22;5045902;28;20033;-70
2021/09/23 06:55:13;;;;;;;5.90;4.25;;;;;;;12.86;70.30;100090.84;5046316;28;20115;-73
2021/09/23 06:57:39;;;;;;;7.43;4.45;;;;;;;12.97;69.98;100091.16;5045692;28;20086;-71
2021/09/23 07:00:06;;;;;;;8.82;4.95;;;;;;;13.09;69.79;100093.13;5036963;28;20056;-72
2021/09/23 07:02:31;;;;;;;5.80;3.92;;;;;;;13.21;69.63;100103.97;5045811;28;20484;-70
2021/09/23 07:04:57;;;;;;;6.85;4.05;;;;;;;13.35;69.39;100105.88;5047005;28;20086;-71
2021/09/23 07:07:22;;;;;;;5.05;3.58;;;;;;;13.46;68.42;100104.34;5046716;28;20606;-72
2021/09/23 07:09:48;;;;;;;6.30;4.22;;;;;;;13.53;67.90;100097.75;5048639;28;20036;-72
2021/09/23 07:12:14;;;;;;;8.38;4.25;;;;;;;13.62;68.15;100101.69;5045796;28;20091;-72
2021/09/23 07:14:40;;;;;;;5.75;3.97;;;;;;;13.67;67.82;100104.94;5038598;28;20059;-72
2021/09/23 07:17:05;;;;;;;11.40;4.03;;;;;;;13.71;67.87;100095.03;5046844;28;20033;-71
2021/09/23 07:19:31;;;;;;;7.25;4.65;;;;;;;13.76;67.57;100098.25;5042415;28;20056;-70
2021/09/23 07:21:57;;;;;;;7.53;4.07;;;;;;;13.82;67.30;100107.66;5041398;28;20042;-70
2021/09/23 07:24:23;;;;;;;6.32;3.85;;;;;;;13.91;66.94;100107.13;5021403;28;20056;-68
2021/09/23 07:26:49;;;;;;;7.97;4.18;;;;;;;13.95;66.59;100093.59;5042458;28;20041;-70
2021/09/23 07:29:16;;;;;;;6.18;3.97;;;;;;;13.99;66.57;100094.28;5045606;28;23916;-69
2021/09/23 07:31:45;;;;;;;5.38;4.03;;;;;;;14.06;66.47;100085.00;5045701;28;20040;-69
2021/09/23 07:34:12;;;;;;;9.05;5.00;;;;;;;14.09;66.31;100083.97;5042794;28;20527;-68
2021/09/23 07:36:37;;;;;;;6.60;4.32;;;;;;;14.14;66.45;100080.09;5046199;28;20047;-69
2021/09/23 07:39:06;;;;;;;5.82;4.10;;;;;;;14.22;65.92;100073.50;5046481;28;20045;-68
2021/09/23 07:41:33;;;;;;;5.85;4.43;;;;;;;14.28;65.76;100079.28;5045564;28;20033;-69
2021/09/23 07:43:58;;;;;;;6.28;4.70;;;;;;;14.33;65.57;100076.38;5049876;28;20033;-70
2021/09/23 07:46:24;;;;;;;22.13;6.82;;;;;;;14.43;65.69;100080.16;5050366;28;20119;-66
2021/09/23 07:48:53;;;;;;;9.13;5.78;;;;;;;14.57;65.17;100074.03;5050374;28;20515;-69
2021/09/23 07:51:19;;;;;;;10.25;4.72;;;;;;;14.71;65.13;100070.53;5048206;28;20037;-69
2021/09/23 07:53:45;;;;;;;7.88;5.28;;;;;;;14.74;64.55;100065.91;5050030;28;20076;-68
2021/09/23 07:56:10;;;;;;;11.60;5.13;;;;;;;14.84;64.56;100062.66;5049548;28;20033;-67
2021/09/23 07:58:35;;;;;;;7.10;5.15;;;;;;;14.94;64.39;100066.44;5049358;28;20043;-68
2021/09/23 08:01:01;;;;;;;7.35;5.05;;;;;;;15.05;64.32;100058.66;5047863;28;20041;-67
2021/09/23 08:03:26;;;;;;;18.10;7.80;;;;;;;15.17;64.40;100063.19;5043166;28;20048;-67
2021/09/23 08:05:51;;;;;;;9.45;5.53;;;;;;;15.34;63.18;100063.94;5043946;28;20039;-68
2021/09/23 08:08:17;;;;;;;7.82;5.82;;;;;;;15.51;63.03;100068.16;5049409;28;20037;-68
2021/09/23 08:10:42;;;;;;;8.05;5.03;;;;;;;15.64;62.71;100072.53;5049240;28;20037;-69
2021/09/23 08:13:08;;;;;;;8.18;5.70;;;;;;;15.92;62.40;100076.06;5048583;28;20028;-68
2021/09/23 08:15:33;;;;;;;7.50;5.30;;;;;;;16.17;61.55;100069.97;5050008;28;20189;-69
2021/09/23 08:17:58;;;;;;;8.32;4.78;;;;;;;16.30;61.26;100072.63;5050024;28;20091;-68
2021/09/23 08:20:24;;;;;;;7.07;4.80;;;;;;;16.44;61.06;100074.31;5049561;28;20485;-69
2021/09/23 08:22:49;;;;;;;21.20;5.97;;;;;;;16.59;60.47;100069.75;5048535;28;20036;-67
2021/09/23 08:25:15;;;;;;;8.45;5.07;;;;;;;16.69;60.18;100065.50;5049337;28;20102;-68
2021/09/23 08:27:40;;;;;;;14.05;5.68;;;;;;;16.78;59.42;100066.66;5048973;28;20120;-68
2021/09/23 08:30:06;;;;;;;6.60;5.35;;;;;;;16.90;57.79;100063.16;5047760;28;20037;-68
2021/09/23 08:32:32;;;;;;;5.80;4.50;;;;;;;17.11;57.80;100058.97;5047350;28;20037;-69
2021/09/23 08:34:57;;;;;;;9.13;6.25;;;;;;;17.24;56.79;100050.94;5048931;28;20041;-69
2021/09/23 08:37:23;;;;;;;12.63;4.80;;;;;;;17.31;56.44;100052.19;5031229;28;20040;-69
2021/09/23 08:39:49;;;;;;;7.07;5.75;;;;;;;17.36;55.21;100039.38;5010582;28;20052;-70
2021/09/23 08:42:17;;;;;;;7.10;4.50;;;;;;;17.57;55.37;100038.75;5014301;28;20481;-72
2021/09/23 08:44:43;;;;;;;7.32;4.65;;;;;;;17.75;55.04;100026.72;5019616;28;20124;-70
2021/09/23 08:47:08;;;;;;;13.45;5.43;;;;;;;17.92;54.88;100016.63;5023132;28;20044;-69
2021/09/23 08:49:34;;;;;;;7.10;5.03;;;;;;;18.07;54.15;100011.94;5023090;28;20082;-68
2021/09/23 08:51:59;;;;;;;9.75;4.60;;;;;;;18.28;53.72;99996.06;5022523;28;20045;-70
2021/09/23 08:54:25;;;;;;;7.10;4.82;;;;;;;18.43;52.75;100001.06;5022425;28;20056;-68
2021/09/23 08:56:50;;;;;;;7.90;5.07;;;;;;;18.66;52.40;100001.06;5022757;28;20744;-70
2021/09/23 08:59:16;;;;;;;7.65;5.30;;;;;;;18.89;52.02;99993.91;5022750;28;20038;-69
2021/09/23 09:01:49;;;;;;;7.20;4.63;;;;;;;19.17;51.46;99992.50;5022748;28;20037;-71
2021/09/23 09:04:15;;;;;;;8.32;5.30;;;;;;;19.44;50.46;99986.72;5022944;28;20113;-70
2021/09/23 09:07:10;;;;;;;6.45;4.50;;;;;;;20.18;48.51;99985.84;5023322;28;20184;-70
2021/09/23 09:09:35;;;;;;;8.00;4.78;;;;;;;20.40;47.79;99987.53;5001673;28;20041;-70
2021/09/23 09:12:00;;;;;;;9.20;5.10;;;;;;;20.91;46.80;99991.16;5001746;28;20486;-71
2021/09/23 09:14:30;;;;;;;6.43;4.40;;;;;;;21.57;44.39;99988.72;5003575;28;20128;-73
2021/09/23 09:17:05;;;;;;;7.53;4.13;;;;;;;22.40;42.56;99978.31;5003533;28;20433;-71
2021/09/23 09:19:52;;;;;;;7.07;4.15;;;;;;;23.34;40.77;99972.72;5005746;28;20831;-72
2021/09/23 09:22:24;;;;;;;8.15;4.90;;;;;;;23.83;39.94;99964.25;5000795;28;20524;-73
2021/09/23 09:24:58;;;;;;;5.38;4.78;;;;;;;24.19;38.39;99956.94;5002983;28;20042;-71
2021/09/23 09:27:44;;;;;;;7.25;5.05;;;;;;;24.37;37.76;99951.47;5013043;28;20037;-70
2021/09/23 09:30:10;;;;;;;7.60;5.25;;;;;;;24.27;37.94;99949.88;5022742;28;20575;-73
2021/09/23 09:32:50;;;;;;;6.85;4.20;;;;;;;24.63;37.76;99945.19;5021840;28;20053;-71
2021/09/23 09:35:26;;;;;;;6.53;4.25;;;;;;;25.03;37.12;99947.19;5023208;28;20454;-71
2021/09/23 09:37:53;;;;;;;8.80;4.45;;;;;;;25.13;36.73;99941.66;5020937;28;20038;-71
2021/09/23 09:40:21;;;;;;;5.68;3.83;;;;;;;25.44;35.90;99936.47;5021120;28;20124;-72
2021/09/23 09:42:51;;;;;;;7.15;4.90;;;;;;;25.89;35.01;99932.44;5021570;28;20472;-72
2021/09/23 09:45:23;;;;;;;7.10;3.85;;;;;;;26.03;34.77;99932.75;5019680;28;20037;-72
2021/09/23 09:47:52;;;;;;;7.93;4.32;;;;;;;26.36;34.06;99938.94;5019590;28;20136;-68
2021/09/23 09:50:26;;;;;;;4.22;3.83;;;;;;;26.66;33.46;99936.47;5022091;28;20034;-72
2021/09/23 09:52:57;;;;;;;7.68;4.18;;;;;;;26.80;33.45;99940.28;5022529;28;20888;-72
2021/09/23 09:55:24;;;;;;;8.55;4.30;;;;;;;26.68;33.00;99932.56;5019486;28;20516;-71
2021/09/23 09:57:51;;;;;;;9.23;4.05;;;;;;;26.68;32.78;99937.97;5022864;28;20036;-70
2021/09/23 10:00:17;;;;;;;5.45;3.90;;;;;;;26.90;32.73;99933.66;5022010;28;20033;-72
2021/09/23 10:02:43;;;;;;;8.98;4.50;;;;;;;27.14;31.99;99932.63;5021821;28;20033;-71
2021/09/23 10:05:14;;;;;;;7.10;4.13;;;;;;;27.10;31.88;99935.88;5022442;28;20033;-72
2021/09/23 10:07:44;;;;;;;8.02;5.25;;;;;;;26.80;32.29;99949.22;5021083;28;20033;-72
2021/09/23 10:10:11;;;;;;;12.35;4.65;;;;;;;27.05;32.19;99949.09;5022744;28;20033;-71
2021/09/23 10:12:40;;;;;;;7.75;4.35;;;;;;;27.26;32.07;99934.97;5021265;28;20061;-72
2021/09/23 10:15:16;;;;;;;11.65;5.20;;;;;;;26.61;32.53;99934.28;5021950;28;20037;-72
2021/09/23 10:17:43;;;;;;;10.93;5.43;;;;;;;26.75;32.67;99935.41;5022552;28;20037;-71
2021/09/23 10:20:10;;;;;;;6.60;4.85;;;;;;;26.97;32.40;99942.72;5022101;28;20477;-70
2021/09/23 10:22:36;;;;;;;7.10;4.25;;;;;;;27.15;32.75;99936.19;5021375;28;20049;-71
2021/09/23 10:25:05;;;;;;;9.32;4.47;;;;;;;27.23;32.36;99930.75;5022222;28;20048;-71
2021/09/23 10:30:18;;;;;;;5.78;4.38;;;;;;;25.91;34.33;99925.00;5021565;28;20071;-72
2021/09/23 10:32:44;;;;;;;9.40;5.18;;;;;;;25.22;35.51;99918.25;5021200;28;20123;-71
2021/09/23 10:35:13;;;;;;;22.50;5.60;;;;;;;24.70;36.51;99913.88;5020265;28;20033;-72
2021/09/23 10:37:39;;;;;;;6.10;5.18;;;;;;;24.46;37.21;99901.16;5021920;28;20029;-72
2021/09/23 10:40:05;;;;;;;7.70;5.97;;;;;;;24.17;38.05;99902.34;5022248;28;20026;-71
2021/09/23 10:42:32;;;;;;;9.50;5.30;;;;;;;23.82;38.66;99897.09;5021143;28;20216;-72
2021/09/23 10:44:58;;;;;;;8.73;5.47;;;;;;;23.50;39.80;99893.97;5022326;28;20044;-72
2021/09/23 10:47:35;;;;;;;9.45;5.88;;;;;;;22.98;40.89;99898.38;5020016;28;20763;-72
2021/09/23 10:50:02;;;;;;;8.15;5.85;;;;;;;22.43;42.01;99892.03;5021765;28;20037;-71
2021/09/23 10:52:31;;;;;;;9.32;5.40;;;;;;;22.16;42.71;99890.16;5019880;28;20114;-71
2021/09/23 10:55:05;;;;;;;5.60;4.60;;;;;;;22.08;43.12;99885.50;5023311;28;20040;-72
2021/09/23 10:57:31;;;;;;;8.67;5.83;;;;;;;21.96;43.43;99881.31;5021711;28;20041;-73
2021/09/23 11:00:01;;;;;;;8.35;5.40;;;;;;;21.75;43.67;99889.56;5022007;28;20114;-72
2021/09/23 11:02:28;;;;;;;11.32;5.15;;;;;;;21.72;43.34;99875.59;5020601;28;20040;-72
2021/09/23 11:04:58;;;;;;;8.45;5.45;;;;;;;21.81;42.95;99883.63;5020169;28;20151;-71
2021/09/23 11:07:27;;;;;;;8.35;4.80;;;;;;;21.76;42.95;99879.69;5015989;28;20041;-71
2021/09/23 11:10:11;;;;;;;7.18;5.32;;;;;;;21.63;42.65;99883.53;5017768;28;20115;-72
2021/09/23 11:12:38;;;;;;;7.65;4.82;;;;;;;21.52;43.52;99877.47;5017497;28;20116;-72
2021/09/23 11:15:06;;;;;;;9.02;4.75;;;;;;;21.52;44.00;99881.00;5015783;28;20056;-72
2021/09/23 11:17:33;;;;;;;8.23;5.05;;;;;;;21.62;44.70;99873.78;5023112;28;20029;-72
2021/09/23 11:20:07;;;;;;;7.38;5.68;;;;;;;21.60;44.50;99873.06;5025646;28;20034;-71
2021/09/23 11:22:47;;;;;;;7.78;4.97;;;;;;;21.60;44.40;99859.66;5023356;28;20044;-72
2021/09/23 11:25:16;;;;;;;8.40;5.00;;;;;;;21.54;44.67;99856.72;5023033;28;20038;-70